FUO weather

Foshan Shadi Airport
Foshan, Guangdong Province, China

Public forecast

Using degrees Celsius for public forecast. Weather courtesy of forecast.io.

Closest aviation weather report (METAR) to Foshan Shadi Airport

Closest report is Guangzhou Baiyun International Airport, 22.5 nm (41.6 km) NE. Retrieved 2019/10/20 04:30 UTC (6 minutes ago):

ZGGG 200430Z 12002MPS 020V190 CAVOK 30/11 Q1016 NOSIG

Closest aviation forecast (TAF) to Foshan Shadi Airport

Closest forecast is Guangzhou Baiyun International Airport, 22.5 nm (41.6 km) NE. Retrieved 2019-10-20 00:03 UTC (5 hours ago):

TAF ZGGG 192101Z 2000/2024 04003MPS CAVOK TX31/2007Z TN22/2022Z